sensor_id;sensor_type;location;lat;lon;timestamp;P1;durP1;ratioP1;P2;durP2;ratioP2
9214;SDS011;4642;51.364;6.788;2023-07-30T00:00:43;9.40;;;2.37;;
9214;SDS011;4642;51.364;6.788;2023-07-30T00:03:08;5.30;;;2.50;;
9214;SDS011;4642;51.364;6.788;2023-07-30T00:05:34;9.50;;;2.00;;
9214;SDS011;4642;51.364;6.788;2023-07-30T00:07:59;6.63;;;2.17;;
9214;SDS011;4642;51.364;6.788;2023-07-30T00:10:25;5.77;;;2.00;;
9214;SDS011;4642;51.364;6.788;2023-07-30T00:12:51;6.13;;;2.17;;
9214;SDS011;4642;51.364;6.788;2023-07-30T00:15:16;5.27;;;2.00;;
9214;SDS011;4642;51.364;6.788;2023-07-30T00:17:42;10.60;;;2.40;;
9214;SDS011;4642;51.364;6.788;2023-07-30T00:20:08;6.63;;;2.47;;
9214;SDS011;4642;51.364;6.788;2023-07-30T00:22:34;5.13;;;2.10;;
9214;SDS011;4642;51.364;6.788;2023-07-30T00:24:59;4.00;;;2.20;;
9214;SDS011;4642;51.364;6.788;2023-07-30T00:27:25;5.13;;;1.93;;
9214;SDS011;4642;51.364;6.788;2023-07-30T00:29:50;5.53;;;2.20;;
9214;SDS011;4642;51.364;6.788;2023-07-30T00:32:16;5.73;;;2.17;;
9214;SDS011;4642;51.364;6.788;2023-07-30T00:34:42;5.17;;;2.17;;
9214;SDS011;4642;51.364;6.788;2023-07-30T00:37:08;5.07;;;2.40;;
9214;SDS011;4642;51.364;6.788;2023-07-30T00:39:33;5.23;;;2.63;;
9214;SDS011;4642;51.364;6.788;2023-07-30T00:41:59;5.33;;;2.10;;
9214;SDS011;4642;51.364;6.788;2023-07-30T00:44:25;12.97;;;2.30;;
9214;SDS011;4642;51.364;6.788;2023-07-30T00:46:50;3.33;;;2.00;;
9214;SDS011;4642;51.364;6.788;2023-07-30T00:49:16;8.30;;;2.80;;
9214;SDS011;4642;51.364;6.788;2023-07-30T00:51:42;3.33;;;2.23;;
9214;SDS011;4642;51.364;6.788;2023-07-30T00:54:08;6.43;;;2.57;;
9214;SDS011;4642;51.364;6.788;2023-07-30T00:56:35;5.37;;;2.57;;
9214;SDS011;4642;51.364;6.788;2023-07-30T00:59:01;5.97;;;2.00;;
9214;SDS011;4642;51.364;6.788;2023-07-30T01:01:27;10.30;;;2.00;;
9214;SDS011;4642;51.364;6.788;2023-07-30T01:03:53;5.00;;;2.30;;
9214;SDS011;4642;51.364;6.788;2023-07-30T01:06:19;5.80;;;2.37;;
9214;SDS011;4642;51.364;6.788;2023-07-30T01:08:45;10.67;;;2.63;;
9214;SDS011;4642;51.364;6.788;2023-07-30T01:11:11;5.43;;;2.40;;
9214;SDS011;4642;51.364;6.788;2023-07-30T01:13:39;5.83;;;2.00;;
9214;SDS011;4642;51.364;6.788;2023-07-30T01:16:05;4.07;;;2.30;;
9214;SDS011;4642;51.364;6.788;2023-07-30T01:18:32;7.27;;;2.00;;
9214;SDS011;4642;51.364;6.788;2023-07-30T01:20:58;7.33;;;2.20;;
9214;SDS011;4642;51.364;6.788;2023-07-30T01:23:24;5.03;;;2.77;;
9214;SDS011;4642;51.364;6.788;2023-07-30T01:25:53;9.67;;;2.57;;
9214;SDS011;4642;51.364;6.788;2023-07-30T01:28:46;5.97;;;2.40;;
9214;SDS011;4642;51.364;6.788;2023-07-30T01:31:14;8.30;;;2.53;;
9214;SDS011;4642;51.364;6.788;2023-07-30T01:33:41;12.30;;;3.03;;
9214;SDS011;4642;51.364;6.788;2023-07-30T01:36:08;9.17;;;2.60;;
9214;SDS011;4642;51.364;6.788;2023-07-30T01:38:37;5.90;;;2.27;;
9214;SDS011;4642;51.364;6.788;2023-07-30T01:41:04;8.13;;;2.97;;
9214;SDS011;4642;51.364;6.788;2023-07-30T01:43:30;7.47;;;2.47;;
9214;SDS011;4642;51.364;6.788;2023-07-30T01:45:55;10.00;;;3.07;;
9214;SDS011;4642;51.364;6.788;2023-07-30T01:48:21;4.53;;;2.40;;
9214;SDS011;4642;51.364;6.788;2023-07-30T01:50:46;4.67;;;2.27;;
9214;SDS011;4642;51.364;6.788;2023-07-30T01:53:13;5.87;;;2.30;;
9214;SDS011;4642;51.364;6.788;2023-07-30T01:55:39;5.30;;;2.20;;
9214;SDS011;4642;51.364;6.788;2023-07-30T01:58:08;6.43;;;2.17;;
9214;SDS011;4642;51.364;6.788;2023-07-30T02:00:34;10.00;;;2.23;;
9214;SDS011;4642;51.364;6.788;2023-07-30T02:03:00;4.57;;;2.20;;
9214;SDS011;4642;51.364;6.788;2023-07-30T02:05:26;7.57;;;2.50;;
9214;SDS011;4642;51.364;6.788;2023-07-30T02:07:51;9.20;;;2.53;;
9214;SDS011;4642;51.364;6.788;2023-07-30T02:10:17;3.27;;;2.27;;
9214;SDS011;4642;51.364;6.788;2023-07-30T02:12:42;10.60;;;2.60;;
9214;SDS011;4642;51.364;6.788;2023-07-30T02:15:08;5.20;;;2.43;;
9214;SDS011;4642;51.364;6.788;2023-07-30T02:17:34;16.40;;;2.70;;
9214;SDS011;4642;51.364;6.788;2023-07-30T02:19:59;11.90;;;2.70;;
9214;SDS011;4642;51.364;6.788;2023-07-30T02:22:24;3.13;;;2.00;;
9214;SDS011;4642;51.364;6.788;2023-07-30T02:24:50;5.50;;;2.30;;
9214;SDS011;4642;51.364;6.788;2023-07-30T02:27:16;6.43;;;2.20;;
9214;SDS011;4642;51.364;6.788;2023-07-30T02:29:41;6.07;;;2.30;;
9214;SDS011;4642;51.364;6.788;2023-07-30T02:32:07;6.40;;;2.30;;
9214;SDS011;4642;51.364;6.788;2023-07-30T02:34:33;3.60;;;2.00;;
9214;SDS011;4642;51.364;6.788;2023-07-30T02:36:59;7.90;;;2.10;;
9214;SDS011;4642;51.364;6.788;2023-07-30T02:39:24;10.47;;;2.60;;
9214;SDS011;4642;51.364;6.788;2023-07-30T02:41:50;2.47;;;2.00;;
9214;SDS011;4642;51.364;6.788;2023-07-30T02:44:15;5.90;;;2.53;;
9214;SDS011;4642;51.364;6.788;2023-07-30T02:46:41;4.07;;;2.13;;
9214;SDS011;4642;51.364;6.788;2023-07-30T02:49:06;7.40;;;2.80;;
9214;SDS011;4642;51.364;6.788;2023-07-30T02:51:33;6.03;;;2.77;;
9214;SDS011;4642;51.364;6.788;2023-07-30T02:54:03;5.30;;;2.57;;
9214;SDS011;4642;51.364;6.788;2023-07-30T02:56:29;12.50;;;2.40;;
9214;SDS011;4642;51.364;6.788;2023-07-30T02:58:54;7.27;;;3.00;;
9214;SDS011;4642;51.364;6.788;2023-07-30T03:01:20;12.17;;;2.90;;
9214;SDS011;4642;51.364;6.788;2023-07-30T03:03:46;5.93;;;2.27;;
9214;SDS011;4642;51.364;6.788;2023-07-30T03:06:11;6.23;;;2.27;;
9214;SDS011;4642;51.364;6.788;2023-07-30T03:08:37;4.57;;;2.70;;
9214;SDS011;4642;51.364;6.788;2023-07-30T03:11:03;7.03;;;2.93;;
9214;SDS011;4642;51.364;6.788;2023-07-30T03:13:29;7.00;;;2.27;;
9214;SDS011;4642;51.364;6.788;2023-07-30T03:15:54;10.97;;;2.70;;
9214;SDS011;4642;51.364;6.788;2023-07-30T03:18:20;4.13;;;2.50;;
9214;SDS011;4642;51.364;6.788;2023-07-30T03:20:45;2.67;;;2.47;;
9214;SDS011;4642;51.364;6.788;2023-07-30T03:23:11;5.10;;;2.23;;
9214;SDS011;4642;51.364;6.788;2023-07-30T03:25:36;6.20;;;2.60;;
9214;SDS011;4642;51.364;6.788;2023-07-30T03:28:02;6.83;;;2.37;;
9214;SDS011;4642;51.364;6.788;2023-07-30T03:30:28;10.93;;;2.87;;
9214;SDS011;4642;51.364;6.788;2023-07-30T03:32:53;5.13;;;2.23;;
9214;SDS011;4642;51.364;6.788;2023-07-30T03:35:19;9.13;;;2.70;;
9214;SDS011;4642;51.364;6.788;2023-07-30T03:37:44;7.63;;;2.50;;
9214;SDS011;4642;51.364;6.788;2023-07-30T03:40:10;10.10;;;2.43;;
9214;SDS011;4642;51.364;6.788;2023-07-30T03:42:35;5.40;;;2.50;;
9214;SDS011;4642;51.364;6.788;2023-07-30T03:45:01;4.43;;;2.00;;
9214;SDS011;4642;51.364;6.788;2023-07-30T03:47:26;7.47;;;2.50;;
9214;SDS011;4642;51.364;6.788;2023-07-30T03:49:52;9.10;;;2.70;;
9214;SDS011;4642;51.364;6.788;2023-07-30T03:52:17;3.37;;;2.13;;
9214;SDS011;4642;51.364;6.788;2023-07-30T03:54:43;3.23;;;2.27;;
9214;SDS011;4642;51.364;6.788;2023-07-30T03:57:08;10.17;;;3.23;;
9214;SDS011;4642;51.364;6.788;2023-07-30T03:59:34;5.60;;;2.70;;
9214;SDS011;4642;51.364;6.788;2023-07-30T04:01:59;7.73;;;3.57;;
9214;SDS011;4642;51.364;6.788;2023-07-30T04:04:25;8.50;;;3.60;;
9214;SDS011;4642;51.364;6.788;2023-07-30T04:06:50;6.03;;;3.00;;
9214;SDS011;4642;51.364;6.788;2023-07-30T04:09:16;6.63;;;3.03;;
9214;SDS011;4642;51.364;6.788;2023-07-30T04:11:42;7.87;;;3.43;;
9214;SDS011;4642;51.364;6.788;2023-07-30T04:14:07;11.33;;;3.73;;
9214;SDS011;4642;51.364;6.788;2023-07-30T04:16:34;10.47;;;2.93;;
9214;SDS011;4642;51.364;6.788;2023-07-30T04:18:59;8.00;;;2.60;;
9214;SDS011;4642;51.364;6.788;2023-07-30T04:21:25;7.10;;;2.60;;
9214;SDS011;4642;51.364;6.788;2023-07-30T04:23:50;8.63;;;2.97;;
9214;SDS011;4642;51.364;6.788;2023-07-30T04:26:16;7.90;;;2.90;;
9214;SDS011;4642;51.364;6.788;2023-07-30T04:28:42;7.30;;;2.60;;
9214;SDS011;4642;51.364;6.788;2023-07-30T04:31:08;7.83;;;3.10;;
9214;SDS011;4642;51.364;6.788;2023-07-30T04:33:33;10.07;;;3.10;;
9214;SDS011;4642;51.364;6.788;2023-07-30T04:35:59;7.07;;;3.23;;
9214;SDS011;4642;51.364;6.788;2023-07-30T04:38:24;9.93;;;3.33;;
9214;SDS011;4642;51.364;6.788;2023-07-30T04:40:50;10.07;;;3.53;;
9214;SDS011;4642;51.364;6.788;2023-07-30T04:43:15;12.80;;;3.50;;
9214;SDS011;4642;51.364;6.788;2023-07-30T04:45:42;11.17;;;3.63;;
9214;SDS011;4642;51.364;6.788;2023-07-30T04:48:07;16.17;;;3.63;;
9214;SDS011;4642;51.364;6.788;2023-07-30T04:50:33;10.67;;;4.40;;
9214;SDS011;4642;51.364;6.788;2023-07-30T04:53:00;9.13;;;3.23;;
9214;SDS011;4642;51.364;6.788;2023-07-30T04:55:25;16.23;;;3.13;;
9214;SDS011;4642;51.364;6.788;2023-07-30T04:57:51;13.97;;;3.30;;
9214;SDS011;4642;51.364;6.788;2023-07-30T05:00:16;18.50;;;3.90;;
9214;SDS011;4642;51.364;6.788;2023-07-30T05:02:42;8.47;;;2.93;;
9214;SDS011;4642;51.364;6.788;2023-07-30T05:05:08;13.87;;;3.73;;
9214;SDS011;4642;51.364;6.788;2023-07-30T05:07:33;10.53;;;3.30;;
9214;SDS011;4642;51.364;6.788;2023-07-30T05:09:59;12.30;;;3.20;;
9214;SDS011;4642;51.364;6.788;2023-07-30T05:12:25;10.57;;;3.50;;
9214;SDS011;4642;51.364;6.788;2023-07-30T05:14:50;10.50;;;3.47;;
9214;SDS011;4642;51.364;6.788;2023-07-30T05:17:16;12.77;;;3.30;;
9214;SDS011;4642;51.364;6.788;2023-07-30T05:19:42;12.57;;;3.40;;
9214;SDS011;4642;51.364;6.788;2023-07-30T05:22:08;8.17;;;3.33;;
9214;SDS011;4642;51.364;6.788;2023-07-30T05:24:34;10.80;;;3.70;;
9214;SDS011;4642;51.364;6.788;2023-07-30T05:27:01;9.40;;;3.23;;
9214;SDS011;4642;51.364;6.788;2023-07-30T05:29:27;8.43;;;3.23;;
9214;SDS011;4642;51.364;6.788;2023-07-30T05:31:52;13.20;;;3.97;;
9214;SDS011;4642;51.364;6.788;2023-07-30T05:34:18;14.40;;;3.47;;
9214;SDS011;4642;51.364;6.788;2023-07-30T05:36:43;8.23;;;3.23;;
9214;SDS011;4642;51.364;6.788;2023-07-30T05:39:09;8.73;;;3.10;;
9214;SDS011;4642;51.364;6.788;2023-07-30T05:41:34;13.00;;;3.50;;
9214;SDS011;4642;51.364;6.788;2023-07-30T05:44:00;9.43;;;2.60;;
9214;SDS011;4642;51.364;6.788;2023-07-30T05:46:25;12.40;;;3.20;;
9214;SDS011;4642;51.364;6.788;2023-07-30T05:48:51;7.73;;;3.00;;
9214;SDS011;4642;51.364;6.788;2023-07-30T05:51:17;8.80;;;2.57;;
9214;SDS011;4642;51.364;6.788;2023-07-30T05:53:42;10.03;;;2.30;;
9214;SDS011;4642;51.364;6.788;2023-07-30T05:56:08;6.90;;;2.53;;
9214;SDS011;4642;51.364;6.788;2023-07-30T05:58:33;11.27;;;2.77;;
9214;SDS011;4642;51.364;6.788;2023-07-30T06:00:59;9.80;;;2.37;;
9214;SDS011;4642;51.364;6.788;2023-07-30T06:03:24;10.03;;;2.23;;
9214;SDS011;4642;51.364;6.788;2023-07-30T06:05:50;10.60;;;2.70;;
9214;SDS011;4642;51.364;6.788;2023-07-30T06:08:15;8.83;;;2.47;;
9214;SDS011;4642;51.364;6.788;2023-07-30T06:10:41;8.53;;;2.00;;
9214;SDS011;4642;51.364;6.788;2023-07-30T06:13:06;4.70;;;1.80;;
9214;SDS011;4642;51.364;6.788;2023-07-30T06:15:32;5.80;;;1.80;;
9214;SDS011;4642;51.364;6.788;2023-07-30T06:17:58;6.77;;;1.97;;
9214;SDS011;4642;51.364;6.788;2023-07-30T06:20:26;4.97;;;1.73;;
9214;SDS011;4642;51.364;6.788;2023-07-30T06:22:51;7.10;;;1.83;;
9214;SDS011;4642;51.364;6.788;2023-07-30T06:25:17;5.97;;;2.00;;
9214;SDS011;4642;51.364;6.788;2023-07-30T06:27:42;6.93;;;1.90;;
9214;SDS011;4642;51.364;6.788;2023-07-30T06:30:08;6.33;;;1.77;;
9214;SDS011;4642;51.364;6.788;2023-07-30T06:32:34;5.50;;;2.13;;
9214;SDS011;4642;51.364;6.788;2023-07-30T06:35:00;8.77;;;2.10;;
9214;SDS011;4642;51.364;6.788;2023-07-30T06:37:26;7.80;;;1.60;;
9214;SDS011;4642;51.364;6.788;2023-07-30T06:39:51;9.67;;;1.90;;
9214;SDS011;4642;51.364;6.788;2023-07-30T06:42:17;9.77;;;1.93;;
9214;SDS011;4642;51.364;6.788;2023-07-30T06:44:42;7.50;;;1.83;;
9214;SDS011;4642;51.364;6.788;2023-07-30T06:47:08;5.40;;;1.60;;
9214;SDS011;4642;51.364;6.788;2023-07-30T06:49:33;3.70;;;1.33;;
9214;SDS011;4642;51.364;6.788;2023-07-30T06:52:02;5.87;;;1.73;;
9214;SDS011;4642;51.364;6.788;2023-07-30T06:54:29;6.87;;;1.90;;
9214;SDS011;4642;51.364;6.788;2023-07-30T06:56:54;6.73;;;2.13;;
9214;SDS011;4642;51.364;6.788;2023-07-30T06:59:20;6.90;;;1.90;;
9214;SDS011;4642;51.364;6.788;2023-07-30T07:01:45;7.60;;;2.00;;
9214;SDS011;4642;51.364;6.788;2023-07-30T07:04:11;5.37;;;2.03;;
9214;SDS011;4642;51.364;6.788;2023-07-30T07:06:36;7.40;;;2.20;;
9214;SDS011;4642;51.364;6.788;2023-07-30T07:09:02;7.10;;;1.70;;
9214;SDS011;4642;51.364;6.788;2023-07-30T07:11:28;7.20;;;2.00;;
9214;SDS011;4642;51.364;6.788;2023-07-30T07:13:53;11.70;;;2.20;;
9214;SDS011;4642;51.364;6.788;2023-07-30T07:16:19;11.43;;;3.07;;
9214;SDS011;4642;51.364;6.788;2023-07-30T07:18:44;5.67;;;2.03;;
9214;SDS011;4642;51.364;6.788;2023-07-30T07:21:10;9.30;;;2.20;;
9214;SDS011;4642;51.364;6.788;2023-07-30T07:23:36;9.77;;;1.93;;
9214;SDS011;4642;51.364;6.788;2023-07-30T07:26:01;6.37;;;1.90;;
9214;SDS011;4642;51.364;6.788;2023-07-30T07:28:27;5.17;;;1.83;;
9214;SDS011;4642;51.364;6.788;2023-07-30T07:30:52;10.10;;;2.67;;
9214;SDS011;4642;51.364;6.788;2023-07-30T07:33:19;7.60;;;2.10;;
9214;SDS011;4642;51.364;6.788;2023-07-30T07:35:45;11.90;;;2.37;;
9214;SDS011;4642;51.364;6.788;2023-07-30T07:38:10;7.93;;;2.03;;
9214;SDS011;4642;51.364;6.788;2023-07-30T07:40:39;10.27;;;2.33;;
9214;SDS011;4642;51.364;6.788;2023-07-30T07:43:06;7.43;;;2.20;;
9214;SDS011;4642;51.364;6.788;2023-07-30T07:45:32;11.63;;;2.57;;
9214;SDS011;4642;51.364;6.788;2023-07-30T07:47:57;8.73;;;2.30;;
9214;SDS011;4642;51.364;6.788;2023-07-30T07:50:23;8.40;;;2.27;;
9214;SDS011;4642;51.364;6.788;2023-07-30T07:52:49;11.97;;;2.00;;
9214;SDS011;4642;51.364;6.788;2023-07-30T07:55:14;10.17;;;2.30;;
9214;SDS011;4642;51.364;6.788;2023-07-30T07:57:40;5.97;;;1.77;;
9214;SDS011;4642;51.364;6.788;2023-07-30T08:00:06;10.27;;;2.90;;
9214;SDS011;4642;51.364;6.788;2023-07-30T08:02:32;12.53;;;2.70;;
9214;SDS011;4642;51.364;6.788;2023-07-30T08:04:57;11.97;;;2.57;;
9214;SDS011;4642;51.364;6.788;2023-07-30T08:07:23;9.37;;;2.53;;
9214;SDS011;4642;51.364;6.788;2023-07-30T08:09:48;15.60;;;2.60;;
9214;SDS011;4642;51.364;6.788;2023-07-30T08:12:16;13.30;;;2.70;;
9214;SDS011;4642;51.364;6.788;2023-07-30T08:14:42;7.87;;;2.70;;
9214;SDS011;4642;51.364;6.788;2023-07-30T08:17:07;7.93;;;2.33;;
9214;SDS011;4642;51.364;6.788;2023-07-30T08:19:33;9.10;;;2.63;;
9214;SDS011;4642;51.364;6.788;2023-07-30T08:21:58;7.60;;;2.17;;
9214;SDS011;4642;51.364;6.788;2023-07-30T08:24:24;7.53;;;2.50;;
9214;SDS011;4642;51.364;6.788;2023-07-30T08:26:49;12.73;;;2.60;;
9214;SDS011;4642;51.364;6.788;2023-07-30T08:29:15;10.90;;;2.90;;
9214;SDS011;4642;51.364;6.788;2023-07-30T08:31:41;7.50;;;2.43;;
9214;SDS011;4642;51.364;6.788;2023-07-30T08:34:06;10.07;;;2.40;;
9214;SDS011;4642;51.364;6.788;2023-07-30T08:36:32;13.20;;;3.00;;
9214;SDS011;4642;51.364;6.788;2023-07-30T08:38:58;10.83;;;2.93;;
9214;SDS011;4642;51.364;6.788;2023-07-30T08:41:23;11.40;;;2.53;;
9214;SDS011;4642;51.364;6.788;2023-07-30T08:43:49;11.83;;;2.40;;
9214;SDS011;4642;51.364;6.788;2023-07-30T08:46:16;13.73;;;2.90;;
9214;SDS011;4642;51.364;6.788;2023-07-30T08:48:42;10.93;;;2.93;;
9214;SDS011;4642;51.364;6.788;2023-07-30T08:51:08;14.20;;;3.57;;
9214;SDS011;4642;51.364;6.788;2023-07-30T08:53:34;15.77;;;2.80;;
9214;SDS011;4642;51.364;6.788;2023-07-30T08:56:00;11.77;;;3.30;;
9214;SDS011;4642;51.364;6.788;2023-07-30T08:58:27;11.90;;;2.90;;
9214;SDS011;4642;51.364;6.788;2023-07-30T09:00:55;12.67;;;2.60;;
9214;SDS011;4642;51.364;6.788;2023-07-30T09:03:20;12.97;;;2.60;;
9214;SDS011;4642;51.364;6.788;2023-07-30T09:05:49;12.53;;;3.07;;
9214;SDS011;4642;51.364;6.788;2023-07-30T09:08:15;16.43;;;2.33;;
9214;SDS011;4642;51.364;6.788;2023-07-30T09:10:42;8.63;;;2.53;;
9214;SDS011;4642;51.364;6.788;2023-07-30T09:13:08;11.00;;;2.30;;
9214;SDS011;4642;51.364;6.788;2023-07-30T09:15:34;13.50;;;2.90;;
9214;SDS011;4642;51.364;6.788;2023-07-30T09:18:04;7.80;;;2.53;;
9214;SDS011;4642;51.364;6.788;2023-07-30T09:20:37;10.83;;;2.60;;
9214;SDS011;4642;51.364;6.788;2023-07-30T09:23:04;11.23;;;2.17;;
9214;SDS011;4642;51.364;6.788;2023-07-30T09:25:32;10.00;;;2.23;;
9214;SDS011;4642;51.364;6.788;2023-07-30T09:27:57;10.43;;;2.27;;
9214;SDS011;4642;51.364;6.788;2023-07-30T09:30:24;10.50;;;2.43;;
9214;SDS011;4642;51.364;6.788;2023-07-30T09:32:51;9.90;;;2.50;;
9214;SDS011;4642;51.364;6.788;2023-07-30T09:35:20;8.07;;;2.00;;
9214;SDS011;4642;51.364;6.788;2023-07-30T09:37:47;9.67;;;2.10;;
9214;SDS011;4642;51.364;6.788;2023-07-30T09:40:14;9.33;;;2.03;;
9214;SDS011;4642;51.364;6.788;2023-07-30T09:42:45;8.30;;;2.50;;
9214;SDS011;4642;51.364;6.788;2023-07-30T09:45:22;9.53;;;2.00;;
9214;SDS011;4642;51.364;6.788;2023-07-30T09:47:49;11.93;;;2.47;;
9214;SDS011;4642;51.364;6.788;2023-07-30T09:50:16;8.93;;;2.10;;
9214;SDS011;4642;51.364;6.788;2023-07-30T09:52:42;8.67;;;1.83;;
9214;SDS011;4642;51.364;6.788;2023-07-30T09:55:08;8.07;;;1.90;;
9214;SDS011;4642;51.364;6.788;2023-07-30T09:57:35;8.73;;;2.20;;
9214;SDS011;4642;51.364;6.788;2023-07-30T10:00:02;9.90;;;2.63;;
9214;SDS011;4642;51.364;6.788;2023-07-30T10:02:28;7.27;;;2.07;;
9214;SDS011;4642;51.364;6.788;2023-07-30T10:04:56;8.37;;;2.23;;
9214;SDS011;4642;51.364;6.788;2023-07-30T10:07:24;9.00;;;1.70;;
9214;SDS011;4642;51.364;6.788;2023-07-30T10:09:51;6.60;;;2.03;;
9214;SDS011;4642;51.364;6.788;2023-07-30T10:12:23;6.40;;;1.83;;
9214;SDS011;4642;51.364;6.788;2023-07-30T10:14:55;7.17;;;1.90;;
9214;SDS011;4642;51.364;6.788;2023-07-30T10:17:21;12.73;;;2.27;;
9214;SDS011;4642;51.364;6.788;2023-07-30T10:19:47;9.13;;;2.30;;
9214;SDS011;4642;51.364;6.788;2023-07-30T10:24:39;7.40;;;1.83;;
9214;SDS011;4642;51.364;6.788;2023-07-30T10:27:08;7.00;;;1.63;;
9214;SDS011;4642;51.364;6.788;2023-07-30T10:29:39;6.33;;;1.77;;
9214;SDS011;4642;51.364;6.788;2023-07-30T10:32:06;10.97;;;1.60;;
9214;SDS011;4642;51.364;6.788;2023-07-30T10:34:45;10.37;;;2.17;;
9214;SDS011;4642;51.364;6.788;2023-07-30T10:37:18;7.87;;;2.10;;
9214;SDS011;4642;51.364;6.788;2023-07-30T10:39:47;8.60;;;1.90;;
9214;SDS011;4642;51.364;6.788;2023-07-30T10:42:13;7.07;;;1.70;;
9214;SDS011;4642;51.364;6.788;2023-07-30T10:44:40;8.80;;;1.97;;
9214;SDS011;4642;51.364;6.788;2023-07-30T10:47:09;6.87;;;1.30;;
9214;SDS011;4642;51.364;6.788;2023-07-30T10:49:38;4.67;;;1.30;;
9214;SDS011;4642;51.364;6.788;2023-07-30T10:52:05;10.10;;;1.70;;
9214;SDS011;4642;51.364;6.788;2023-07-30T10:54:34;5.77;;;1.47;;
9214;SDS011;4642;51.364;6.788;2023-07-30T10:57:00;7.20;;;1.70;;
9214;SDS011;4642;51.364;6.788;2023-07-30T10:59:27;7.40;;;1.83;;
9214;SDS011;4642;51.364;6.788;2023-07-30T11:01:59;5.50;;;1.50;;
9214;SDS011;4642;51.364;6.788;2023-07-30T11:04:24;5.90;;;1.60;;
9214;SDS011;4642;51.364;6.788;2023-07-30T11:06:50;7.23;;;1.93;;
9214;SDS011;4642;51.364;6.788;2023-07-30T11:11:49;8.00;;;1.87;;
9214;SDS011;4642;51.364;6.788;2023-07-30T11:14:16;8.23;;;1.60;;
9214;SDS011;4642;51.364;6.788;2023-07-30T11:16:55;6.87;;;1.60;;
9214;SDS011;4642;51.364;6.788;2023-07-30T11:19:26;7.20;;;1.90;;
9214;SDS011;4642;51.364;6.788;2023-07-30T11:21:52;7.30;;;1.90;;
9214;SDS011;4642;51.364;6.788;2023-07-30T11:24:21;8.20;;;2.10;;
9214;SDS011;4642;51.364;6.788;2023-07-30T11:26:58;8.33;;;1.67;;
9214;SDS011;4642;51.364;6.788;2023-07-30T11:29:25;10.40;;;2.07;;
9214;SDS011;4642;51.364;6.788;2023-07-30T11:31:51;8.70;;;1.77;;
9214;SDS011;4642;51.364;6.788;2023-07-30T11:34:20;6.90;;;1.90;;
9214;SDS011;4642;51.364;6.788;2023-07-30T11:36:46;8.17;;;1.70;;
9214;SDS011;4642;51.364;6.788;2023-07-30T11:39:11;4.70;;;1.30;;
9214;SDS011;4642;51.364;6.788;2023-07-30T11:41:37;5.40;;;1.67;;
9214;SDS011;4642;51.364;6.788;2023-07-30T11:44:03;6.47;;;1.97;;
9214;SDS011;4642;51.364;6.788;2023-07-30T11:46:29;6.67;;;1.80;;
9214;SDS011;4642;51.364;6.788;2023-07-30T11:49:10;6.33;;;1.87;;
9214;SDS011;4642;51.364;6.788;2023-07-30T11:51:37;7.17;;;1.60;;
9214;SDS011;4642;51.364;6.788;2023-07-30T11:54:03;5.43;;;1.77;;
9214;SDS011;4642;51.364;6.788;2023-07-30T11:56:29;4.30;;;1.47;;
9214;SDS011;4642;51.364;6.788;2023-07-30T11:58:56;4.83;;;1.40;;
9214;SDS011;4642;51.364;6.788;2023-07-30T12:01:24;6.10;;;1.97;;
9214;SDS011;4642;51.364;6.788;2023-07-30T12:03:58;7.43;;;1.60;;
9214;SDS011;4642;51.364;6.788;2023-07-30T12:06:41;6.80;;;1.80;;
9214;SDS011;4642;51.364;6.788;2023-07-30T12:09:14;8.60;;;1.80;;
9214;SDS011;4642;51.364;6.788;2023-07-30T12:11:53;4.63;;;1.40;;
9214;SDS011;4642;51.364;6.788;2023-07-30T12:14:19;2.77;;;1.13;;
9214;SDS011;4642;51.364;6.788;2023-07-30T12:16:47;4.90;;;1.37;;
9214;SDS011;4642;51.364;6.788;2023-07-30T12:19:12;4.50;;;1.27;;
9214;SDS011;4642;51.364;6.788;2023-07-30T12:21:38;4.80;;;1.20;;
9214;SDS011;4642;51.364;6.788;2023-07-30T12:24:03;3.20;;;1.10;;
9214;SDS011;4642;51.364;6.788;2023-07-30T12:26:29;3.10;;;1.20;;
9214;SDS011;4642;51.364;6.788;2023-07-30T12:28:55;4.37;;;1.20;;
9214;SDS011;4642;51.364;6.788;2023-07-30T12:31:21;6.63;;;1.30;;
9214;SDS011;4642;51.364;6.788;2023-07-30T12:33:46;4.37;;;0.90;;
9214;SDS011;4642;51.364;6.788;2023-07-30T12:36:12;5.90;;;1.30;;
9214;SDS011;4642;51.364;6.788;2023-07-30T12:38:38;3.10;;;1.00;;
9214;SDS011;4642;51.364;6.788;2023-07-30T12:41:04;3.20;;;1.00;;
9214;SDS011;4642;51.364;6.788;2023-07-30T12:43:30;5.30;;;1.30;;
9214;SDS011;4642;51.364;6.788;2023-07-30T12:45:55;4.07;;;1.13;;
9214;SDS011;4642;51.364;6.788;2023-07-30T12:48:21;4.70;;;1.47;;
9214;SDS011;4642;51.364;6.788;2023-07-30T12:50:46;5.83;;;1.27;;
9214;SDS011;4642;51.364;6.788;2023-07-30T12:53:12;6.40;;;1.30;;
9214;SDS011;4642;51.364;6.788;2023-07-30T12:55:37;4.63;;;1.27;;
9214;SDS011;4642;51.364;6.788;2023-07-30T12:58:04;6.53;;;1.33;;
9214;SDS011;4642;51.364;6.788;2023-07-30T13:00:30;4.47;;;1.30;;
9214;SDS011;4642;51.364;6.788;2023-07-30T13:02:56;4.27;;;1.33;;
9214;SDS011;4642;51.364;6.788;2023-07-30T13:05:22;5.23;;;1.37;;
9214;SDS011;4642;51.364;6.788;2023-07-30T13:07:47;3.43;;;1.23;;
9214;SDS011;4642;51.364;6.788;2023-07-30T13:10:14;4.47;;;1.20;;
9214;SDS011;4642;51.364;6.788;2023-07-30T13:12:40;3.73;;;1.37;;
9214;SDS011;4642;51.364;6.788;2023-07-30T13:15:06;4.87;;;1.30;;
9214;SDS011;4642;51.364;6.788;2023-07-30T13:17:32;4.00;;;1.30;;
9214;SDS011;4642;51.364;6.788;2023-07-30T13:19:58;4.93;;;1.17;;
9214;SDS011;4642;51.364;6.788;2023-07-30T13:22:24;6.57;;;1.43;;
9214;SDS011;4642;51.364;6.788;2023-07-30T13:24:50;6.40;;;1.30;;
9214;SDS011;4642;51.364;6.788;2023-07-30T13:27:16;4.67;;;1.37;;
9214;SDS011;4642;51.364;6.788;2023-07-30T13:29:41;5.10;;;1.47;;
9214;SDS011;4642;51.364;6.788;2023-07-30T13:32:07;6.00;;;1.30;;
9214;SDS011;4642;51.364;6.788;2023-07-30T13:34:33;3.30;;;1.30;;
9214;SDS011;4642;51.364;6.788;2023-07-30T13:36:58;3.77;;;1.20;;
9214;SDS011;4642;51.364;6.788;2023-07-30T13:39:24;4.00;;;1.00;;
9214;SDS011;4642;51.364;6.788;2023-07-30T13:41:49;5.83;;;1.57;;
9214;SDS011;4642;51.364;6.788;2023-07-30T13:44:15;4.27;;;1.50;;
9214;SDS011;4642;51.364;6.788;2023-07-30T13:46:40;4.57;;;1.07;;
9214;SDS011;4642;51.364;6.788;2023-07-30T13:49:06;6.03;;;1.50;;
9214;SDS011;4642;51.364;6.788;2023-07-30T13:51:32;3.10;;;1.23;;
9214;SDS011;4642;51.364;6.788;2023-07-30T13:54:01;5.63;;;1.43;;
9214;SDS011;4642;51.364;6.788;2023-07-30T13:56:27;3.90;;;1.40;;
9214;SDS011;4642;51.364;6.788;2023-07-30T13:58:54;7.37;;;1.50;;
9214;SDS011;4642;51.364;6.788;2023-07-30T14:01:19;6.30;;;1.80;;
9214;SDS011;4642;51.364;6.788;2023-07-30T14:03:45;6.23;;;1.43;;
9214;SDS011;4642;51.364;6.788;2023-07-30T14:06:11;7.77;;;1.40;;
9214;SDS011;4642;51.364;6.788;2023-07-30T14:08:37;7.13;;;1.30;;
9214;SDS011;4642;51.364;6.788;2023-07-30T14:11:03;5.73;;;1.67;;
9214;SDS011;4642;51.364;6.788;2023-07-30T14:13:28;4.90;;;1.40;;
9214;SDS011;4642;51.364;6.788;2023-07-30T14:15:54;5.43;;;1.50;;
9214;SDS011;4642;51.364;6.788;2023-07-30T14:18:19;4.43;;;1.40;;
9214;SDS011;4642;51.364;6.788;2023-07-30T14:20:45;5.23;;;1.63;;
9214;SDS011;4642;51.364;6.788;2023-07-30T14:23:11;7.60;;;1.87;;
9214;SDS011;4642;51.364;6.788;2023-07-30T14:25:37;4.30;;;1.27;;
9214;SDS011;4642;51.364;6.788;2023-07-30T14:28:04;7.53;;;1.43;;
9214;SDS011;4642;51.364;6.788;2023-07-30T14:30:29;4.93;;;1.13;;
9214;SDS011;4642;51.364;6.788;2023-07-30T14:32:55;4.60;;;1.60;;
9214;SDS011;4642;51.364;6.788;2023-07-30T14:35:21;6.07;;;1.27;;
9214;SDS011;4642;51.364;6.788;2023-07-30T14:37:46;3.83;;;1.57;;
9214;SDS011;4642;51.364;6.788;2023-07-30T14:40:12;5.53;;;1.40;;
9214;SDS011;4642;51.364;6.788;2023-07-30T14:42:37;5.57;;;1.53;;
9214;SDS011;4642;51.364;6.788;2023-07-30T14:45:04;4.47;;;1.50;;
9214;SDS011;4642;51.364;6.788;2023-07-30T14:47:31;5.33;;;1.70;;
9214;SDS011;4642;51.364;6.788;2023-07-30T14:49:57;6.13;;;1.63;;
9214;SDS011;4642;51.364;6.788;2023-07-30T14:52:23;5.90;;;1.87;;
9214;SDS011;4642;51.364;6.788;2023-07-30T14:54:49;3.77;;;1.33;;
9214;SDS011;4642;51.364;6.788;2023-07-30T14:57:14;4.97;;;1.37;;
9214;SDS011;4642;51.364;6.788;2023-07-30T14:59:40;9.43;;;1.87;;
9214;SDS011;4642;51.364;6.788;2023-07-30T15:02:05;8.00;;;1.93;;
9214;SDS011;4642;51.364;6.788;2023-07-30T15:04:31;3.83;;;1.80;;
9214;SDS011;4642;51.364;6.788;2023-07-30T15:06:57;7.07;;;1.80;;
9214;SDS011;4642;51.364;6.788;2023-07-30T15:09:22;8.10;;;1.70;;
9214;SDS011;4642;51.364;6.788;2023-07-30T15:11:48;8.80;;;1.70;;